createdAt,value
2023-05-12T00:03:52.517Z,0.00
2023-05-12T00:08:51.592Z,0.00
2023-05-12T00:13:52.768Z,0.00
2023-05-12T00:18:53.828Z,0.00
2023-05-12T00:23:54.827Z,0.00
2023-05-12T00:28:55.878Z,0.00
2023-05-12T00:33:56.936Z,0.00
2023-05-12T00:38:57.978Z,0.00
2023-05-12T00:43:59.021Z,0.00
2023-05-12T00:49:00.051Z,0.00
2023-05-12T00:54:01.140Z,0.00
2023-05-12T00:59:02.180Z,0.00
2023-05-12T01:04:04.220Z,0.00
2023-05-12T01:09:04.275Z,0.00
2023-05-12T01:14:03.306Z,0.00
2023-05-12T01:19:05.374Z,0.00
2023-05-12T01:24:04.560Z,0.00
2023-05-12T01:29:06.593Z,0.00
2023-05-12T01:34:05.656Z,0.00
2023-05-12T01:39:07.696Z,0.00
2023-05-12T01:44:06.737Z,0.00
2023-05-12T01:49:07.773Z,0.00
2023-05-12T01:54:08.902Z,0.00
2023-05-12T01:59:10.007Z,0.00
2023-05-12T02:04:11.033Z,0.00
2023-05-12T02:09:13.043Z,0.00
2023-05-12T02:14:12.142Z,0.00
2023-05-12T02:19:14.271Z,0.00
2023-05-12T02:24:14.994Z,0.00
2023-05-12T02:29:14.045Z,0.00
2023-05-12T02:34:15.079Z,0.00
2023-05-12T02:39:17.114Z,0.00
2023-05-12T02:44:16.151Z,0.00
2023-05-12T02:49:18.190Z,0.00
2023-05-12T02:54:17.227Z,0.00
2023-05-12T02:59:18.304Z,0.00
2023-05-12T03:04:19.355Z,0.00
2023-05-12T03:09:21.400Z,0.00
2023-05-12T03:14:20.450Z,0.00
2023-05-12T03:19:21.510Z,4.00
2023-05-12T03:24:23.555Z,0.00
2023-05-12T03:29:24.607Z,4.00
2023-05-12T03:34:23.633Z,12.00
2023-05-12T03:39:25.693Z,24.00
2023-05-12T03:44:24.730Z,40.00
2023-05-12T03:49:26.797Z,68.00
2023-05-12T03:54:26.824Z,100.00
2023-05-12T03:59:26.857Z,88.00
2023-05-12T04:04:26.902Z,172.00
2023-05-12T04:09:25.968Z,312.00
2023-05-12T04:14:39.162Z,524.00
2023-05-12T04:19:27.928Z,704.00
2023-05-12T04:24:29.991Z,912.00
2023-05-12T04:29:29.057Z,1016.00
2023-05-12T04:34:31.120Z,1160.00
2023-05-12T04:39:30.180Z,1432.00
2023-05-12T04:44:31.269Z,1496.00
2023-05-12T04:49:32.333Z,1652.00
2023-05-12T04:54:33.374Z,2380.00
2023-05-12T04:59:35.441Z,2072.00
2023-05-12T05:04:34.498Z,1988.00
2023-05-12T05:09:36.672Z,2692.00
2023-05-12T05:14:36.776Z,3264.00
2023-05-12T05:19:50.908Z,3416.00
2023-05-12T05:24:36.751Z,3660.00
2023-05-12T05:29:36.858Z,4812.00
2023-05-12T05:34:37.010Z,3596.00
2023-05-12T05:39:37.008Z,2856.00
2023-05-12T05:44:36.075Z,3720.00
2023-05-12T05:49:38.092Z,5780.00
2023-05-12T05:54:38.124Z,5752.00
2023-05-12T05:59:38.166Z,5324.00
2023-05-12T06:04:38.213Z,3428.00
2023-05-12T06:09:38.228Z,3960.00
2023-05-12T06:14:37.265Z,4636.00
2023-05-12T06:19:38.299Z,5068.00
2023-05-12T06:24:39.340Z,5228.00
2023-05-12T06:29:40.358Z,6080.00
2023-05-12T06:34:42.413Z,6560.00
2023-05-12T06:39:42.441Z,7748.00
2023-05-12T06:44:42.527Z,7708.00
2023-05-12T06:49:42.677Z,7548.00
2023-05-12T06:54:42.700Z,8456.00
2023-05-12T06:59:41.734Z,9948.00
2023-05-12T07:04:42.770Z,7392.00
2023-05-12T07:09:43.809Z,7660.00
2023-05-12T07:14:45.825Z,7848.00
2023-05-12T07:19:46.183Z,6500.00
2023-05-12T07:24:45.500Z,7340.00
2023-05-12T07:29:46.547Z,7336.00
2023-05-12T07:34:48.582Z,7668.00
2023-05-12T07:39:47.636Z,7844.00
2023-05-12T07:44:48.665Z,8176.00
2023-05-12T07:49:49.724Z,8504.00
2023-05-12T07:54:51.107Z,8016.00
2023-05-12T07:59:52.164Z,8348.00
2023-05-12T08:04:55.197Z,7952.00
2023-05-12T08:09:54.223Z,7864.00
2023-05-12T08:14:55.280Z,8448.00
2023-05-12T08:19:57.333Z,8568.00
2023-05-12T08:24:56.424Z,6732.00
2023-05-12T08:29:57.465Z,6032.00
2023-05-12T08:35:00.544Z,5540.00
2023-05-12T08:40:01.607Z,5768.00
2023-05-12T08:45:01.633Z,5424.00
2023-05-12T08:50:01.691Z,5408.00
2023-05-12T08:55:01.044Z,5820.00
2023-05-12T09:00:01.484Z,5764.00
2023-05-12T09:05:02.573Z,6532.00
2023-05-12T09:10:04.600Z,8084.00
2023-05-12T09:15:03.646Z,9876.00
2023-05-12T09:20:04.711Z,9616.00
2023-05-12T09:25:05.798Z,10244.00
2023-05-12T09:30:06.824Z,10164.00
2023-05-12T09:35:08.844Z,9572.00
2023-05-12T09:40:07.898Z,12420.00
2023-05-12T09:45:09.988Z,12816.00
2023-05-12T09:50:10.033Z,11668.00
2023-05-12T09:55:10.836Z,9404.00
2023-05-12T10:00:21.506Z,6636.00
2023-05-12T10:05:09.906Z,7336.00
2023-05-12T10:10:11.972Z,7960.00
2023-05-12T10:15:13.044Z,7968.00
2023-05-12T10:20:14.119Z,7740.00
2023-05-12T10:25:14.490Z,8216.00
2023-05-12T10:30:13.544Z,8504.00
2023-05-12T10:35:14.578Z,10092.00
2023-05-12T10:40:16.733Z,10452.00
2023-05-12T10:45:15.749Z,9916.00
2023-05-12T10:50:16.811Z,9628.00
2023-05-12T10:55:17.953Z,9620.00
2023-05-12T11:00:20.646Z,9704.00
2023-05-12T11:05:20.776Z,10832.00
2023-05-12T11:10:22.103Z,9748.00
2023-05-12T11:15:21.495Z,9264.00
2023-05-12T11:20:22.591Z,9576.00
2023-05-12T11:25:23.927Z,9632.00
2023-05-12T11:30:25.018Z,9692.00
2023-05-12T11:35:27.101Z,8904.00
2023-05-12T11:40:26.164Z,10264.00
2023-05-12T11:45:27.231Z,9652.00
2023-05-12T11:50:28.326Z,9696.00
2023-05-12T11:55:29.386Z,9588.00
2023-05-12T12:00:33.444Z,9920.00
2023-05-12T12:05:30.478Z,10744.00
2023-05-12T12:10:31.526Z,10560.00
2023-05-12T12:15:33.578Z,10044.00
2023-05-12T12:20:33.631Z,10484.00
2023-05-12T12:25:32.661Z,10724.00
2023-05-12T12:30:34.696Z,10204.00
2023-05-12T12:35:34.733Z,9384.00
2023-05-12T12:40:38.679Z,9244.00
2023-05-12T12:45:33.725Z,8648.00
2023-05-12T12:50:35.736Z,10168.00
2023-05-12T12:55:34.790Z,10612.00
2023-05-12T13:00:35.838Z,8848.00
2023-05-12T13:05:37.828Z,9168.00
2023-05-12T13:10:36.883Z,9196.00
2023-05-12T13:15:37.913Z,7648.00
2023-05-12T13:20:38.956Z,8200.00
2023-05-12T13:25:39.980Z,10320.00
2023-05-12T13:30:42.049Z,10464.00
2023-05-12T13:35:41.067Z,6640.00
2023-05-12T13:40:42.096Z,9932.00
2023-05-12T13:45:43.185Z,6600.00
2023-05-12T13:50:44.253Z,10104.00
2023-05-12T13:55:45.294Z,9656.00
2023-05-12T14:00:46.331Z,10348.00
2023-05-12T14:05:48.412Z,9708.00
2023-05-12T14:10:47.426Z,10148.00
2023-05-12T14:15:49.958Z,9016.00
2023-05-12T14:20:49.331Z,7872.00
2023-05-12T14:25:51.362Z,7324.00
2023-05-12T14:30:50.402Z,7744.00
2023-05-12T14:36:03.265Z,7964.00
2023-05-12T14:40:53.385Z,9868.00
2023-05-12T14:45:54.696Z,7324.00
2023-05-12T14:50:52.902Z,10668.00
2023-05-12T14:55:51.942Z,10364.00
2023-05-12T15:00:55.030Z,7848.00
2023-05-12T15:06:05.509Z,11256.00
2023-05-12T15:10:54.963Z,11504.00
2023-05-12T15:15:56.759Z,11776.00
2023-05-12T15:20:57.025Z,7984.00
2023-05-12T15:25:56.083Z,6564.00
2023-05-12T15:30:57.124Z,6496.00
2023-05-12T15:35:58.131Z,5848.00
2023-05-12T15:40:59.157Z,4640.00
2023-05-12T15:46:00.259Z,3104.00
2023-05-12T15:51:02.300Z,2664.00
2023-05-12T15:56:02.351Z,2192.00
2023-05-12T16:01:01.465Z,4520.00
2023-05-12T16:06:03.534Z,2340.00
2023-05-12T16:11:03.581Z,2380.00
2023-05-12T16:16:03.645Z,2604.00
2023-05-12T16:21:02.670Z,2784.00
2023-05-12T16:26:03.718Z,2900.00
2023-05-12T16:31:04.833Z,2888.00
2023-05-12T16:36:05.832Z,2988.00
2023-05-12T16:41:07.941Z,3100.00
2023-05-12T16:46:06.237Z,2896.00
2023-05-12T16:51:07.431Z,2568.00
2023-05-12T16:56:08.819Z,2588.00
2023-05-12T17:01:10.252Z,2560.00
2023-05-12T17:06:22.041Z,2408.00
2023-05-12T17:11:25.857Z,2352.00
2023-05-12T17:16:14.421Z,2252.00
2023-05-12T17:21:21.408Z,2032.00
2023-05-12T17:26:12.800Z,1860.00
2023-05-12T17:31:14.305Z,1608.00
2023-05-12T17:36:13.768Z,1392.00
2023-05-12T17:41:13.244Z,1228.00
2023-05-12T17:46:22.425Z,1096.00
2023-05-12T22:16:50.906Z,0.00
2023-05-12T22:21:52.932Z,0.00
2023-05-12T22:26:54.050Z,0.00
2023-05-12T22:31:53.195Z,0.00
2023-05-12T22:36:54.342Z,0.00
2023-05-12T22:41:55.378Z,0.00
2023-05-12T22:46:57.484Z,0.00
2023-05-12T22:51:57.539Z,0.00
2023-05-12T22:56:56.578Z,0.00
2023-05-12T23:01:57.648Z,0.00
2023-05-12T23:06:58.718Z,0.00
2023-05-12T23:12:00.821Z,0.00
2023-05-12T23:17:00.937Z,0.00
2023-05-12T23:22:02.053Z,0.00
2023-05-12T23:27:01.154Z,0.00
2023-05-12T23:32:02.395Z,0.00
2023-05-12T23:37:04.494Z,0.00
2023-05-12T23:42:03.541Z,0.00
2023-05-12T23:47:05.796Z,0.00
2023-05-12T23:52:04.892Z,0.00
2023-05-12T23:57:06.070Z,0.00
